Accueil
METAR-TAF:

METAR-TAF

Aéroports :

Oslo, Norvège

Aéroport d'Oslo-Gardermoen

latitude: 60-12N, longitude: 011-05E, altitude: 208 m

Observation

Le bulletin a été fait il y a 2 heures et 25 minutes, à 10:20 UTC
Vent calme
Température 8°C
Humidité 61%
Pression 1014 hPa
Visibilité 10 km ou plus
pas de nuages en-dessous de 1500 mètres et pas de cumulonimbus.

METAR: ENGM 181020Z 00000KT CAVOK 08/01 Q1014 NOSIG

Heure: 14:45 (12:45 UTC)

Prévision

Prévision valable du 18 à 12 UTC au 19 à 12 UTC
Vent 8 kt de nord
Visibilité 10 km ou plus
pas de nuages en-dessous de 1500 mètres et pas de cumulonimbus.
Probabilité 30%
du 19 à 03 UTC au 19 à 07 UTC
Visibilité: 2000 m
Nuages fragmentés à une hauteur de 200 ft
bancs de brouillard

TAF: ENGM 1812/1912 35008KT CAVOK PROB30 1903/1907 2000 BCFG BKN002

Observations et prévisions météorologiques de plus de 4000 aéroports (messages METAR et TAF).

Les stations disponibles sont représentées par des disques jaunes et rouges sur la carte.

Passer la souris dessus pour voir le nom de la station.

Cliquer dessus pour voir les observations et prévisions météorologiques.

Pour changer de carte: cliquez sur les boutons verts avec une croix noire pour zoomer, sur le bouton vert avec un tiret pour effectuer un zoom arrière, ou sur les flèches vertes pour les cartes adjacentes.


METAR-TAF: